Time;durP1;ratioP1;P1;durP2;ratioP2;P2;SDS_P1;SDS_P2;PMS_P1;PMS_P2;Temp;Humidity;BMP_temperature;BMP_pressure;BME280_temperature;BME280_humidity;BME280_pressure;Samples;Min_cycle;Max_cycle;Signal;HPM_P1;HPM_P2
2022/07/29 00:02:05;;;;;;;13.38;3.10;;;;;;;18.45;57.00;101501.09;5053153;28;20463;-69
2022/07/29 00:04:30;;;;;;;12.25;3.03;;;;;;;18.50;56.91;101489.44;5053049;28;20047;-67
2022/07/29 00:06:55;;;;;;;10.02;3.08;;;;;;;18.45;56.82;101495.75;5053020;28;20036;-67
2022/07/29 00:09:21;;;;;;;10.40;3.03;;;;;;;18.47;56.96;101499.25;5052889;28;20407;-64
2022/07/29 00:11:46;;;;;;;13.95;3.08;;;;;;;18.40;57.10;101494.94;5053021;28;20033;-65
2022/07/29 00:14:12;;;;;;;9.05;3.00;;;;;;;18.38;57.47;101493.22;5052917;28;20060;-65
2022/07/29 00:16:37;;;;;;;10.40;3.00;;;;;;;18.41;57.74;101498.50;5052930;28;20082;-64
2022/07/29 00:19:03;;;;;;;10.25;3.00;;;;;;;18.43;57.63;101492.19;5052865;28;20056;-63
2022/07/29 00:21:28;;;;;;;12.05;3.00;;;;;;;18.44;57.97;101487.75;5052947;28;20112;-64
2022/07/29 00:23:53;;;;;;;11.48;3.17;;;;;;;18.37;58.38;101494.13;5052713;28;20021;-64
2022/07/29 00:26:19;;;;;;;11.70;3.00;;;;;;;18.39;58.13;101485.16;5052843;28;20459;-65
2022/07/29 00:28:44;;;;;;;11.07;3.20;;;;;;;18.39;59.06;101486.94;5052497;28;20055;-65
2022/07/29 00:31:09;;;;;;;10.65;3.20;;;;;;;18.30;58.54;101490.66;5052392;28;20459;-67
2022/07/29 00:33:34;;;;;;;10.32;3.17;;;;;;;18.30;59.38;101493.31;5052941;28;20111;-70
2022/07/29 00:36:00;;;;;;;12.65;3.30;;;;;;;18.26;59.65;101491.59;5052416;28;20028;-63
2022/07/29 00:38:25;;;;;;;10.20;3.10;;;;;;;18.26;59.28;101505.88;5052435;28;20021;-63
2022/07/29 00:40:50;;;;;;;11.02;3.20;;;;;;;18.29;59.67;101504.97;5052659;28;20024;-63
2022/07/29 00:43:17;;;;;;;10.38;2.97;;;;;;;18.25;60.50;101509.47;5052490;28;20116;-64
2022/07/29 00:45:43;;;;;;;9.63;3.05;;;;;;;18.22;60.48;101520.22;5052299;28;20033;-64
2022/07/29 00:48:08;;;;;;;10.20;3.10;;;;;;;18.23;60.62;101521.09;5052607;28;20037;-63
2022/07/29 00:50:34;;;;;;;10.70;3.22;;;;;;;18.21;61.54;101528.28;5052494;28;20021;-63
2022/07/29 00:53:00;;;;;;;9.25;2.97;;;;;;;18.18;61.55;101533.69;5052497;28;20080;-63
2022/07/29 00:55:26;;;;;;;10.88;3.20;;;;;;;18.09;61.96;101532.03;5052772;28;20025;-63
2022/07/29 00:57:52;;;;;;;10.60;3.30;;;;;;;17.95;62.18;101542.94;5052266;28;20025;-64
2022/07/29 01:00:21;;;;;;;9.77;3.17;;;;;;;17.75;62.63;101536.09;5052336;28;20437;-63
2022/07/29 01:02:50;;;;;;;10.35;3.08;;;;;;;17.60;63.37;101506.88;5052208;28;20041;-63
2022/07/29 01:05:21;;;;;;;11.63;3.35;;;;;;;17.56;63.24;101513.16;5052208;28;20033;-64
2022/07/29 01:07:48;;;;;;;13.50;3.30;;;;;;;17.49;63.94;101507.06;5052408;28;20029;-63
2022/07/29 01:10:15;;;;;;;16.17;3.28;;;;;;;17.54;64.42;101493.63;5052317;28;20021;-64
2022/07/29 01:12:44;;;;;;;11.43;3.35;;;;;;;17.47;65.24;101470.56;5052411;28;20108;-63
2022/07/29 01:15:10;;;;;;;15.35;3.85;;;;;;;17.42;65.35;101467.94;5052025;28;20017;-64
2022/07/29 01:17:38;;;;;;;14.50;3.30;;;;;;;17.31;66.01;101448.50;5052510;28;20136;-63
2022/07/29 01:20:11;;;;;;;12.20;3.33;;;;;;;17.27;65.78;101458.38;5052076;28;20024;-63
2022/07/29 01:23:02;;;;;;;15.70;3.40;;;;;;;17.28;67.11;101454.78;5052050;28;20518;-64
2022/07/29 01:25:28;;;;;;;14.68;3.22;;;;;;;17.26;68.07;101445.91;5051981;28;20475;-64
2022/07/29 01:27:59;;;;;;;13.13;3.47;;;;;;;17.23;70.23;101445.97;5051733;28;20029;-63
2022/07/29 01:30:26;;;;;;;9.05;3.25;;;;;;;17.18;73.34;101437.09;5052144;28;20029;-62
2022/07/29 01:32:56;;;;;;;8.95;3.38;;;;;;;17.18;72.31;101426.41;5052209;28;20025;-62
2022/07/29 01:35:38;;;;;;;11.10;3.50;;;;;;;17.13;71.37;101409.59;5051961;28;20025;-62
2022/07/29 01:38:10;;;;;;;15.50;3.55;;;;;;;17.11;72.40;101419.41;5048535;28;20052;-62
2022/07/29 01:40:35;;;;;;;;;;;;;;;17.16;68.95;101405.06;5052333;28;20059;-62
2022/07/29 01:43:10;;;;;;;12.97;3.60;;;;;;;17.11;71.63;101414.97;5052165;28;19948;-62
2022/07/29 01:45:43;;;;;;;12.13;3.80;;;;;;;17.11;72.44;101414.06;5048682;28;20779;-62
2022/07/29 01:48:27;;;;;;;;;;;;;;;17.20;68.35;101404.13;5054043;28;20045;-62
2022/07/29 01:51:16;;;;;;;13.40;3.60;;;;;;;17.17;70.42;101401.50;5055420;28;19913;-62
2022/07/29 01:53:55;;;;;;;15.65;4.07;;;;;;;17.14;70.69;101403.31;5052904;28;20393;-62
2022/07/29 01:56:24;;;;;;;9.70;3.40;;;;;;;17.05;71.62;101410.56;5055380;28;20025;-62
2022/07/29 01:58:51;;;;;;;14.70;3.80;;;;;;;17.02;71.63;101415.97;5055468;28;20021;-62
2022/07/29 02:01:18;;;;;;;12.73;3.60;;;;;;;16.99;71.91;101421.31;5055375;28;20488;-62
2022/07/29 02:03:45;;;;;;;11.40;3.42;;;;;;;16.98;72.46;101424.00;5054962;28;20078;-63
2022/07/29 02:06:13;;;;;;;10.75;3.45;;;;;;;16.95;72.75;101416.94;5055549;28;20027;-62
2022/07/29 02:08:40;;;;;;;15.85;3.78;;;;;;;17.01;72.45;101416.00;5055274;28;20090;-62
2022/07/29 02:11:08;;;;;;;13.98;3.50;;;;;;;16.93;73.36;101408.06;5055011;28;20032;-62
2022/07/29 02:13:35;;;;;;;14.82;3.80;;;;;;;16.89;73.68;101409.00;5055211;28;20033;-62
2022/07/29 02:16:04;;;;;;;13.15;3.70;;;;;;;16.79;74.96;101402.88;5051098;28;20021;-62
2022/07/29 02:18:30;;;;;;;15.32;4.00;;;;;;;16.69;76.23;101406.56;5050861;28;20067;-63
2022/07/29 02:20:58;;;;;;;14.77;3.80;;;;;;;16.64;76.99;101403.94;5055338;28;20111;-63
2022/07/29 02:23:25;;;;;;;14.88;4.00;;;;;;;16.69;77.52;101402.09;5055086;28;20506;-63
2022/07/29 02:25:55;;;;;;;12.82;4.00;;;;;;;16.71;77.35;101405.63;5054746;28;20029;-64
2022/07/29 02:28:25;;;;;;;12.35;3.80;;;;;;;16.73;78.95;101405.59;5054527;28;20032;-63
2022/07/29 02:30:52;;;;;;;15.48;4.30;;;;;;;16.67;78.71;101403.91;5054788;28;20037;-63
2022/07/29 02:33:19;;;;;;;15.35;4.20;;;;;;;16.59;79.20;101399.56;5054842;28;20091;-64
2022/07/29 02:35:46;;;;;;;14.77;4.25;;;;;;;16.52;80.31;101404.97;5054518;28;20534;-63
2022/07/29 02:41:08;;;;;;;12.88;4.40;;;;;;;16.36;81.80;101411.38;5051026;28;20044;-63
2022/07/29 02:43:35;;;;;;;14.73;4.28;;;;;;;16.34;83.46;101408.72;5050979;28;20021;-62
2022/07/29 02:46:04;;;;;;;15.02;4.40;;;;;;;16.44;82.69;101396.19;5054436;28;20486;-63
2022/07/29 02:48:41;;;;;;;15.77;4.30;;;;;;;16.46;82.80;101393.50;5050488;28;20360;-64
2022/07/29 02:51:13;;;;;;;17.83;4.28;;;;;;;16.52;81.94;101383.59;5051380;28;20057;-63
2022/07/29 02:53:40;;;;;;;13.85;4.00;;;;;;;16.58;81.01;101390.66;5054297;28;20041;-64
2022/07/29 02:56:13;;;;;;;14.13;4.30;;;;;;;16.51;81.82;101394.31;5054092;28;20471;-63
2022/07/29 02:58:42;;;;;;;16.80;4.50;;;;;;;16.54;81.91;101407.59;5053355;28;20029;-63
2022/07/29 03:01:14;;;;;;;15.15;4.00;;;;;;;16.50;81.42;101416.56;5054223;28;20029;-62
2022/07/29 03:03:44;;;;;;;17.17;4.30;;;;;;;16.46;82.25;101414.84;5054304;28;20036;-63
2022/07/29 03:06:11;;;;;;;14.20;4.28;;;;;;;16.46;82.83;101414.84;5054008;28;20118;-63
2022/07/29 03:08:37;;;;;;;14.98;4.35;;;;;;;16.41;83.20;101408.66;5053933;28;20033;-63
2022/07/29 03:11:04;;;;;;;12.75;4.20;;;;;;;16.40;83.68;101407.78;5053998;28;20025;-63
2022/07/29 03:13:30;;;;;;;16.60;4.55;;;;;;;16.29;84.21;101409.66;5050105;28;20099;-64
2022/07/29 03:15:58;;;;;;;14.00;4.35;;;;;;;16.25;84.76;101422.16;5054166;28;20455;-64
2022/07/29 03:18:25;;;;;;;14.23;4.20;;;;;;;16.29;85.57;101415.88;5053867;28;20036;-62
2022/07/29 03:20:51;;;;;;;16.02;4.28;;;;;;;16.33;87.04;101414.94;5053710;28;20025;-62
2022/07/29 03:23:22;;;;;;;14.18;4.25;;;;;;;16.23;86.27;101415.94;5053697;28;20436;-62
2022/07/29 03:25:48;;;;;;;14.48;4.40;;;;;;;16.26;86.20;101418.56;5053971;28;20108;-62
2022/07/29 03:28:13;;;;;;;15.20;4.40;;;;;;;16.37;85.65;101400.69;5053421;28;20116;-62
2022/07/29 03:30:38;;;;;;;14.60;4.40;;;;;;;16.31;85.92;101406.09;5053435;28;20021;-64
2022/07/29 03:33:04;;;;;;;14.15;4.22;;;;;;;16.36;85.88;101412.25;5053698;28;20037;-62
2022/07/29 03:35:31;;;;;;;14.75;4.43;;;;;;;16.39;84.86;101398.88;5053683;28;20028;-63
2022/07/29 03:37:56;;;;;;;15.60;4.35;;;;;;;16.29;85.12;101397.19;5053825;28;20071;-62
2022/07/29 03:40:29;;;;;;;14.75;4.50;;;;;;;16.24;85.78;101404.38;5053440;28;20036;-62
2022/07/29 03:42:55;;;;;;;14.43;4.32;;;;;;;16.19;86.14;101400.88;5053340;28;20064;-62
2022/07/29 03:45:21;;;;;;;15.43;4.50;;;;;;;16.13;86.26;101407.16;5053293;28;20057;-63
2022/07/29 03:47:54;;;;;;;12.60;4.10;;;;;;;16.03;86.01;101419.69;5053282;28;20036;-62
2022/07/29 03:50:21;;;;;;;15.90;4.40;;;;;;;16.02;86.62;101409.06;5053135;28;20052;-62
2022/07/29 03:52:47;;;;;;;11.68;4.22;;;;;;;15.97;86.47;101410.88;5052737;28;20091;-62
2022/07/29 03:55:13;;;;;;;13.73;4.18;;;;;;;15.93;86.89;101401.13;5053261;28;20379;-62
2022/07/29 03:57:39;;;;;;;15.15;4.30;;;;;;;15.94;87.54;101400.22;5053021;28;20481;-62
2022/07/29 04:00:06;;;;;;;13.90;4.03;;;;;;;15.86;88.09;101408.31;5052985;28;20067;-62
2022/07/29 04:02:32;;;;;;;13.30;4.28;;;;;;;15.87;88.25;101404.72;5051881;28;20395;-62
2022/07/29 04:04:58;;;;;;;16.63;4.50;;;;;;;15.87;88.44;101399.38;5053093;28;20029;-62
2022/07/29 04:07:23;;;;;;;16.40;4.53;;;;;;;15.81;88.68;101400.34;5052724;28;20052;-62
2022/07/29 04:09:48;;;;;;;14.98;4.20;;;;;;;15.82;89.37;101407.44;5053142;28;20112;-62
2022/07/29 04:12:14;;;;;;;14.57;4.25;;;;;;;15.82;89.75;101398.56;5052842;28;20027;-63
2022/07/29 04:14:39;;;;;;;15.55;4.32;;;;;;;15.86;89.80;101394.97;5053095;28;20418;-64
2022/07/29 04:17:04;;;;;;;13.30;4.22;;;;;;;15.87;89.43;101386.06;5053036;28;20459;-64
2022/07/29 04:19:31;;;;;;;15.02;4.45;;;;;;;15.91;89.71;101390.47;5052733;28;20497;-64
2022/07/29 04:21:57;;;;;;;11.68;4.18;;;;;;;15.94;89.61;101394.91;5052815;28;20028;-64
2022/07/29 04:24:23;;;;;;;13.30;4.18;;;;;;;15.91;89.61;101390.47;5052495;28;20111;-64
2022/07/29 04:26:48;;;;;;;14.02;4.55;;;;;;;15.91;89.63;101386.94;5052529;28;20116;-69
2022/07/29 04:29:14;;;;;;;15.65;4.43;;;;;;;15.82;90.56;101395.91;5052953;28;20025;-64
2022/07/29 04:31:40;;;;;;;12.70;4.30;;;;;;;15.76;90.92;101396.78;5052548;28;20021;-66
2022/07/29 04:34:06;;;;;;;14.35;4.45;;;;;;;15.79;91.17;101395.94;5052794;28;20040;-66
2022/07/29 04:36:32;;;;;;;15.77;4.43;;;;;;;15.78;91.88;101391.44;5052949;28;20021;-63
2022/07/29 04:38:57;;;;;;;13.77;4.15;;;;;;;15.84;91.70;101400.31;5052599;28;20082;-66
2022/07/29 04:41:23;;;;;;;15.95;4.45;;;;;;;15.89;91.92;101402.94;5052727;28;20029;-63
2022/07/29 04:43:48;;;;;;;16.25;4.45;;;;;;;15.90;91.89;101406.47;5052496;28;20104;-65
2022/07/29 04:46:13;;;;;;;14.95;4.57;;;;;;;15.89;92.32;101415.38;5052387;28;20095;-66
2022/07/29 04:48:38;;;;;;;15.77;4.47;;;;;;;15.85;93.26;101411.88;5052378;28;20118;-65
2022/07/29 04:51:04;;;;;;;13.93;4.70;;;;;;;15.88;93.57;101406.50;5052550;28;20025;-67
2022/07/29 04:53:29;;;;;;;15.70;4.82;;;;;;;15.82;95.18;101430.53;5052176;28;20128;-62
2022/07/29 04:55:54;;;;;;;18.08;5.20;;;;;;;15.79;95.95;101433.25;5052164;28;20483;-63
2022/07/29 04:58:20;;;;;;;17.48;5.10;;;;;;;15.62;96.58;101431.53;5052507;28;20067;-64
2022/07/29 05:00:45;;;;;;;15.63;5.00;;;;;;;15.62;97.47;101436.88;5052445;28;20021;-63
2022/07/29 05:03:11;;;;;;;15.13;4.72;;;;;;;15.71;97.08;101435.03;5052608;28;20021;-64
2022/07/29 05:05:36;;;;;;;18.20;5.20;;;;;;;15.68;97.71;101442.19;5052500;28;20495;-63
2022/07/29 05:08:01;;;;;;;16.33;5.10;;;;;;;15.69;97.81;101448.38;5052031;28;20037;-64
2022/07/29 05:10:27;;;;;;;18.60;5.65;;;;;;;15.70;97.66;101458.16;5052222;28;20051;-64
2022/07/29 05:12:52;;;;;;;16.88;5.07;;;;;;;15.78;97.61;101458.09;5052182;28;20025;-63
2022/07/29 05:15:17;;;;;;;18.70;5.82;;;;;;;15.85;98.05;101459.84;5052169;28;20039;-63
2022/07/29 05:17:43;;;;;;;17.83;5.25;;;;;;;15.86;97.51;101456.28;5052549;28;20486;-64
2022/07/29 05:20:09;;;;;;;16.60;5.13;;;;;;;15.87;97.73;101458.03;5050936;28;20017;-63
2022/07/29 05:22:34;;;;;;;17.90;5.40;;;;;;;15.80;99.05;101454.56;5053456;28;20475;-64
2022/07/29 05:25:00;;;;;;;16.58;5.75;;;;;;;15.78;98.57;101459.00;5056043;28;20017;-63
2022/07/29 05:27:25;;;;;;;18.92;5.88;;;;;;;15.82;98.80;101447.41;5055619;28;20037;-62
2022/07/29 05:29:51;;;;;;;16.50;5.70;;;;;;;15.82;98.59;101459.88;5055782;28;20433;-64
2022/07/29 05:32:16;;;;;;;17.63;5.63;;;;;;;15.83;98.83;101462.53;5055898;28;20036;-62
2022/07/29 05:34:41;;;;;;;17.52;5.93;;;;;;;15.89;98.56;101458.94;5055745;28;20017;-70
2022/07/29 05:37:07;;;;;;;16.85;5.50;;;;;;;15.92;98.36;101456.22;5049394;28;20502;-63
2022/07/29 05:39:32;;;;;;;18.77;5.75;;;;;;;15.89;98.46;101458.03;5053286;28;20070;-62
2022/07/29 05:41:57;;;;;;;18.20;5.90;;;;;;;15.93;98.28;101457.09;5053979;28;20028;-64
2022/07/29 05:44:23;;;;;;;17.10;5.78;;;;;;;16.01;97.97;101453.47;5055152;28;20106;-63
2022/07/29 05:46:48;;;;;;;18.17;6.03;;;;;;;15.97;97.64;101461.53;5053980;28;20028;-63
2022/07/29 05:49:14;;;;;;;18.15;6.30;;;;;;;16.00;98.13;101467.72;5054202;28;20497;-63
2022/07/29 05:51:39;;;;;;;17.40;5.85;;;;;;;16.11;97.47;101472.97;5054087;28;20484;-63
2022/07/29 05:54:05;;;;;;;18.52;6.20;;;;;;;16.15;97.25;101463.13;5053313;28;20048;-63
2022/07/29 05:56:31;;;;;;;18.85;6.18;;;;;;;16.11;96.62;101464.09;5052484;28;20079;-64
2022/07/29 05:58:57;;;;;;;18.13;6.45;;;;;;;16.10;97.21;101448.97;5053590;28;20060;-63
2022/07/29 06:01:22;;;;;;;18.77;6.15;;;;;;;16.21;96.88;101460.44;5053339;28;20087;-64
2022/07/29 06:03:48;;;;;;;19.23;6.20;;;;;;;16.27;96.44;101463.03;5053974;28;20051;-65
2022/07/29 06:06:13;;;;;;;18.70;6.70;;;;;;;16.34;96.24;101456.75;5052921;28;20080;-63
2022/07/29 06:08:39;;;;;;;17.75;7.03;;;;;;;16.43;95.85;101457.56;5052776;28;20033;-65
2022/07/29 06:11:05;;;;;;;19.75;6.55;;;;;;;16.45;95.31;101461.09;5053264;28;20116;-64
2022/07/29 06:13:31;;;;;;;20.13;6.80;;;;;;;16.51;95.18;101463.69;5053349;28;20112;-65
2022/07/29 06:15:56;;;;;;;20.67;6.97;;;;;;;16.50;95.25;101462.81;5053030;28;20051;-66
2022/07/29 06:18:23;;;;;;;19.77;7.18;;;;;;;16.48;95.04;101458.38;5053212;28;20029;-63
2022/07/29 06:20:49;;;;;;;18.65;6.90;;;;;;;16.53;94.67;101465.44;5052841;28;20479;-62
2022/07/29 06:23:15;;;;;;;19.98;6.90;;;;;;;16.60;94.26;101474.28;5053403;28;20425;-63
2022/07/29 06:25:41;;;;;;;19.25;7.03;;;;;;;16.61;94.08;101467.16;5052931;28;20031;-62
2022/07/29 06:28:06;;;;;;;18.27;6.80;;;;;;;16.63;94.22;101466.25;5052677;28;20472;-62
2022/07/29 06:30:31;;;;;;;20.02;6.97;;;;;;;16.67;94.02;101457.31;5052882;28;20490;-63
2022/07/29 06:32:57;;;;;;;19.20;7.35;;;;;;;16.73;93.69;101454.56;5052607;28;20028;-63
2022/07/29 06:35:22;;;;;;;18.98;7.07;;;;;;;16.73;93.58;101449.22;5052603;28;20032;-62
2022/07/29 06:37:47;;;;;;;19.55;7.22;;;;;;;16.78;93.68;101461.63;5053156;28;20352;-62
2022/07/29 06:42:56;;;;;;;20.23;7.45;;;;;;;16.70;94.27;101470.59;5052994;28;20048;-64
2022/07/29 06:45:22;;;;;;;18.27;6.88;;;;;;;16.77;93.23;101471.41;5051995;28;20024;-62
2022/07/29 06:47:48;;;;;;;20.25;7.38;;;;;;;16.83;93.46;101465.13;5050210;28;20039;-65
2022/07/29 06:50:14;;;;;;;18.30;7.22;;;;;;;16.82;93.18;101471.34;5047601;28;20464;-65
2022/07/29 06:52:40;;;;;;;20.23;7.05;;;;;;;16.81;93.83;101466.94;5049053;28;20041;-65
2022/07/29 06:55:06;;;;;;;18.38;6.68;;;;;;;16.90;93.54;101470.38;5050066;28;20057;-64
2022/07/29 06:57:32;;;;;;;18.98;7.05;;;;;;;16.90;92.68;101474.84;5052591;28;20099;-65
2022/07/29 06:59:57;;;;;;;19.35;6.70;;;;;;;16.96;92.39;101473.91;5052162;28;20555;-64
2022/07/29 07:02:23;;;;;;;19.58;6.68;;;;;;;16.96;92.55;101477.44;5051737;28;20035;-62
2022/07/29 07:04:48;;;;;;;18.73;6.60;;;;;;;17.00;92.49;101484.50;5052318;28;20021;-64
2022/07/29 07:07:14;;;;;;;19.33;6.90;;;;;;;17.12;92.44;101482.59;5051895;28;20025;-64
2022/07/29 07:09:39;;;;;;;18.20;6.80;;;;;;;17.15;91.93;101479.88;5051538;28;20020;-64
2022/07/29 07:12:05;;;;;;;18.05;6.70;;;;;;;17.27;91.31;101479.75;5051703;28;20143;-63
2022/07/29 07:14:31;;;;;;;18.13;6.40;;;;;;;17.42;90.99;101484.00;5051407;28;20028;-63
2022/07/29 07:16:56;;;;;;;19.17;6.55;;;;;;;17.48;89.87;101485.69;5052345;28;20044;-62
2022/07/29 07:19:21;;;;;;;19.25;6.28;;;;;;;17.61;89.42;101492.63;5049028;28;20029;-62
2022/07/29 07:21:47;;;;;;;19.48;6.68;;;;;;;17.65;88.42;101485.44;5048777;28;20043;-64
2022/07/29 07:24:12;;;;;;;18.48;6.80;;;;;;;17.67;88.12;101491.66;5051964;28;20032;-63
2022/07/29 07:26:39;;;;;;;18.95;6.90;;;;;;;17.72;88.51;101490.69;5051600;28;20029;-63
2022/07/29 07:29:04;;;;;;;20.08;6.60;;;;;;;17.75;88.64;101493.31;5051636;28;20067;-63
2022/07/29 07:31:30;;;;;;;18.95;6.78;;;;;;;17.81;88.27;101492.34;5051892;28;20021;-63
2022/07/29 07:33:55;;;;;;;19.58;6.88;;;;;;;17.70;87.51;101495.16;5049370;28;20032;-62
2022/07/29 07:36:22;;;;;;;17.77;6.60;;;;;;;17.68;87.86;101486.28;5051772;28;20055;-64
2022/07/29 07:38:47;;;;;;;17.85;6.32;;;;;;;17.75;88.60;101489.72;5051009;28;20048;-63
2022/07/29 07:41:12;;;;;;;17.80;6.53;;;;;;;17.90;88.47;101491.34;5051620;28;20051;-62
2022/07/29 07:43:38;;;;;;;19.40;6.88;;;;;;;18.02;87.94;101491.13;5051442;28;20029;-62
2022/07/29 07:46:04;;;;;;;18.42;7.07;;;;;;;18.13;86.18;101493.63;5050821;28;20060;-62
2022/07/29 07:48:29;;;;;;;18.92;6.57;;;;;;;18.26;86.79;101484.47;5047618;28;20375;-63
2022/07/29 07:50:54;;;;;;;18.85;6.75;;;;;;;18.34;85.12;101492.38;5051115;28;20387;-63
2022/07/29 07:53:20;;;;;;;20.83;6.90;;;;;;;18.40;83.90;101486.03;5050695;28;20111;-64
2022/07/29 07:55:45;;;;;;;20.25;6.70;;;;;;;18.47;83.53;101488.56;5050816;28;20045;-62
2022/07/29 07:58:11;;;;;;;20.25;7.00;;;;;;;18.53;83.77;101498.28;5051035;28;20024;-63
2022/07/29 08:00:37;;;;;;;17.88;6.50;;;;;;;18.68;83.85;101496.22;5051024;28;20039;-62
2022/07/29 08:03:02;;;;;;;18.38;6.82;;;;;;;18.65;82.07;101497.16;5051101;28;20365;-62
2022/07/29 08:05:28;;;;;;;19.30;6.68;;;;;;;18.72;82.77;101498.81;5049446;28;20134;-62
2022/07/29 08:07:53;;;;;;;18.77;6.40;;;;;;;18.75;82.08;101493.38;5049612;28;20126;-62
2022/07/29 08:13:05;;;;;;;17.95;6.78;;;;;;;18.92;82.21;101502.94;5050178;28;20070;-62
2022/07/29 08:15:30;;;;;;;18.73;6.30;;;;;;;19.12;81.92;101500.72;5053023;28;20033;-62
2022/07/29 08:17:56;;;;;;;18.98;6.80;;;;;;;19.13;81.10;101502.50;5052697;28;20021;-62
2022/07/29 08:20:21;;;;;;;17.95;6.50;;;;;;;19.15;80.48;101503.34;5052646;28;20426;-62
2022/07/29 08:22:46;;;;;;;17.25;6.13;;;;;;;19.33;79.93;101502.06;5052695;28;20033;-62
2022/07/29 08:25:12;;;;;;;18.63;6.90;;;;;;;19.43;78.73;101505.41;5052593;28;20056;-62
2022/07/29 08:27:37;;;;;;;19.05;7.15;;;;;;;19.57;77.20;101501.53;5052634;28;20067;-62
2022/07/29 08:30:04;;;;;;;20.67;6.80;;;;;;;19.54;76.14;101509.66;5052368;28;20025;-62
2022/07/29 08:32:31;;;;;;;19.70;6.90;;;;;;;19.45;76.63;101511.63;5052595;28;20025;-62
2022/07/29 08:34:56;;;;;;;18.88;6.60;;;;;;;19.64;77.56;101513.88;5052887;28;20047;-62
2022/07/29 08:37:21;;;;;;;19.33;7.35;;;;;;;19.73;75.81;101505.66;5052383;28;20409;-62
2022/07/29 08:39:47;;;;;;;19.85;6.97;;;;;;;20.04;75.19;101513.00;5052466;28;20033;-62
2022/07/29 08:42:13;;;;;;;18.55;7.03;;;;;;;20.32;72.31;101515.84;5052486;28;20025;-62
2022/07/29 08:44:38;;;;;;;18.77;6.80;;;;;;;20.44;71.89;101520.00;5052104;28;20399;-62
2022/07/29 08:47:04;;;;;;;19.95;7.20;;;;;;;20.63;70.41;101514.16;5048245;28;20040;-64
2022/07/29 08:49:30;;;;;;;18.25;7.10;;;;;;;20.67;71.39;101518.56;5050377;28;20384;-63
2022/07/29 08:51:57;;;;;;;20.30;6.90;;;;;;;20.73;68.83;101515.72;5050646;28;20021;-63
2022/07/29 08:54:23;;;;;;;16.52;6.25;;;;;;;20.88;68.30;101517.97;5049805;28;20404;-63
2022/07/29 08:56:50;;;;;;;18.77;6.20;;;;;;;20.99;64.94;101516.78;5052024;28;20032;-63
2022/07/29 08:59:20;;;;;;;18.35;6.30;;;;;;;21.29;65.38;101511.44;5054448;28;20472;-64
2022/07/29 09:01:47;;;;;;;17.80;6.05;;;;;;;21.45;65.62;101503.78;5054508;28;20036;-63
2022/07/29 09:04:14;;;;;;;18.45;6.20;;;;;;;21.41;65.37;101513.75;5054907;28;20421;-62
2022/07/29 09:06:43;;;;;;;17.45;5.93;;;;;;;21.53;65.38;101507.16;5053793;28;20025;-62
2022/07/29 09:09:09;;;;;;;16.25;5.65;;;;;;;21.61;64.15;101498.84;5052706;28;20055;-63
2022/07/29 09:11:34;;;;;;;17.45;5.50;;;;;;;21.68;61.61;101505.78;5054600;28;20025;-62
2022/07/29 09:14:00;;;;;;;17.75;5.55;;;;;;;22.01;61.63;101508.31;5054350;28;20107;-65
2022/07/29 09:16:25;;;;;;;18.02;5.70;;;;;;;22.23;62.44;101503.97;5053792;28;20021;-64
2022/07/29 09:18:51;;;;;;;19.13;6.18;;;;;;;22.40;61.40;101506.13;5052478;28;20033;-63
2022/07/29 09:24:07;;;;;;;17.42;5.75;;;;;;;22.71;58.90;101514.94;5049689;28;20494;-63
2022/07/29 09:26:36;;;;;;;21.98;6.28;;;;;;;22.51;57.58;101513.81;5048689;28;20395;-63
2022/07/29 09:29:09;;;;;;;16.38;5.60;;;;;;;22.26;58.43;101514.63;5051395;28;20059;-67
2022/07/29 09:31:37;;;;;;;17.58;6.00;;;;;;;22.11;58.63;101509.78;5049301;28;20116;-65
2022/07/29 09:34:05;;;;;;;15.95;5.45;;;;;;;22.43;56.52;101515.91;5049677;28;20028;-65
2022/07/29 09:36:31;;;;;;;16.52;4.80;;;;;;;22.78;55.37;101519.16;5050409;28;20029;-64
2022/07/29 09:39:01;;;;;;;15.65;4.85;;;;;;;22.86;53.55;101522.44;5051411;28;20040;-65
2022/07/29 09:41:27;;;;;;;16.52;4.97;;;;;;;23.12;53.35;101524.22;5051101;28;20298;-66
2022/07/29 09:43:57;;;;;;;16.88;4.97;;;;;;;23.56;51.08;101519.88;5052146;28;20025;-65
2022/07/29 09:46:23;;;;;;;15.80;5.22;;;;;;;23.63;51.64;101516.00;5050077;28;20055;-64
2022/07/29 09:49:18;;;;;;;16.02;5.20;;;;;;;24.21;52.36;101518.16;5051332;28;20033;-64
2022/07/29 09:51:43;;;;;;;13.70;4.20;;;;;;;25.19;47.04;101520.16;5009104;28;20382;-65
2022/07/29 09:54:26;;;;;;;16.35;4.95;;;;;;;26.23;45.65;101522.41;5010081;28;20133;-64
2022/07/29 09:56:52;;;;;;;17.70;5.20;;;;;;;27.38;41.02;101516.38;5010546;28;20120;-63
2022/07/29 09:59:20;;;;;;;15.82;4.93;;;;;;;28.42;38.33;101514.03;5011609;28;20037;-63
2022/07/29 10:01:46;;;;;;;14.55;4.45;;;;;;;29.59;36.70;101514.91;5010910;28;20038;-63
2022/07/29 10:04:11;;;;;;;15.13;4.38;;;;;;;30.28;34.89;101514.03;5011333;28;20208;-64
2022/07/29 10:06:55;;;;;;;14.23;4.00;;;;;;;31.20;35.42;101518.47;5010501;28;20084;-64
2022/07/29 10:09:21;;;;;;;13.88;4.40;;;;;;;31.23;31.75;101514.66;5010662;28;20038;-63
2022/07/29 10:12:03;;;;;;;15.43;4.20;;;;;;;31.50;32.71;101519.06;5011105;28;20420;-63
2022/07/29 10:14:29;;;;;;;;;;;;;;;32.45;32.57;101521.97;5008080;28;20055;-63
2022/07/29 10:16:54;;;;;;;14.52;4.43;;;;;;;32.23;29.26;101511.84;5010874;28;19920;-63
2022/07/29 10:19:20;;;;;;;14.10;4.32;;;;;;;32.03;29.64;101513.34;5003544;28;20025;-63
2022/07/29 10:21:46;;;;;;;13.65;4.05;;;;;;;32.15;29.94;101510.56;5004015;28;20072;-63
2022/07/29 10:24:11;;;;;;;15.13;4.10;;;;;;;33.23;28.53;101516.78;5001549;28;20026;-63
2022/07/29 10:26:40;;;;;;;13.55;4.03;;;;;;;34.14;27.06;101512.00;5005038;28;20495;-63
2022/07/29 10:29:05;;;;;;;12.30;3.75;;;;;;;33.98;27.50;101513.28;5047171;28;20464;-63
2022/07/29 10:31:46;;;;;;;15.25;4.00;;;;;;;33.72;28.53;101519.06;5054844;28;20032;-63
2022/07/29 10:34:34;;;;;;;14.02;4.10;;;;;;;34.11;27.74;101506.78;5051645;28;20509;-64
2022/07/29 10:37:22;;;;;;;13.32;4.15;;;;;;;35.09;27.26;101513.81;5054460;28;20135;-64
2022/07/29 10:40:00;;;;;;;14.52;4.10;;;;;;;35.18;25.41;101509.34;5052108;28;20028;-63
2022/07/29 10:42:28;;;;;;;15.75;4.13;;;;;;;34.21;26.08;101514.06;5054291;28;20067;-64
2022/07/29 10:44:54;;;;;;;15.20;4.40;;;;;;;33.38;27.25;101518.28;5054500;28;20048;-64
2022/07/29 10:47:21;;;;;;;15.23;4.05;;;;;;;33.91;27.40;101509.31;5054222;28;20118;-63
2022/07/29 10:50:04;;;;;;;14.38;3.95;;;;;;;34.96;26.45;101513.16;5054075;28;20044;-64
2022/07/29 10:52:56;;;;;;;14.75;4.20;;;;;;;35.89;25.71;101506.56;5053973;28;20080;-64
2022/07/29 10:55:38;;;;;;;13.68;4.10;;;;;;;36.33;24.80;101500.63;5052496;28;20044;-64
2022/07/29 10:58:20;;;;;;;15.82;4.55;;;;;;;36.40;24.35;101496.28;5054032;28;20031;-64
2022/07/29 11:00:48;;;;;;;13.05;4.20;;;;;;;36.40;22.54;101503.69;5051285;28;20049;-64
2022/07/29 11:03:46;;;;;;;11.27;3.97;;;;;;;37.41;23.63;101508.59;5054122;28;20037;-64
2022/07/29 11:06:11;;;;;;;13.60;4.18;;;;;;;36.60;23.51;101510.03;5050855;28;20530;-63
2022/07/29 11:08:37;;;;;;;13.38;3.97;;;;;;;37.30;23.36;101510.53;5054060;28;20078;-64
2022/07/29 11:11:27;;;;;;;13.27;4.00;;;;;;;37.70;23.33;101502.03;5053851;28;20071;-64
2022/07/29 11:13:54;;;;;;;13.15;3.95;;;;;;;38.23;21.46;101498.47;5051795;28;20029;-64
2022/07/29 11:16:21;;;;;;;14.98;4.18;;;;;;;38.16;21.25;101498.19;5053833;28;20463;-64
2022/07/29 11:19:12;;;;;;;12.50;3.95;;;;;;;38.19;22.46;101491.50;5054043;28;20029;-64
2022/07/29 11:21:42;;;;;;;13.25;3.80;;;;;;;38.51;21.24;101493.66;5049309;28;20033;-64
2022/07/29 11:24:16;;;;;;;17.55;3.80;;;;;;;38.43;21.65;101490.84;5049995;28;20443;-64
2022/07/29 11:26:42;;;;;;;14.52;4.13;;;;;;;38.15;21.29;101496.44;5050147;28;20478;-64
2022/07/29 11:29:17;;;;;;;14.35;3.80;;;;;;;38.45;21.80;101499.84;5053604;28;20383;-63
2022/07/29 11:31:44;;;;;;;10.63;3.55;;;;;;;39.38;20.22;101501.97;5050552;28;20029;-64
2022/07/29 11:34:32;;;;;;;10.88;3.72;;;;;;;40.17;20.40;101501.63;5053427;28;20025;-64